Khassab, Oman
Current Conditions -  °F | °C
As of 2:00 PM on Wednesday 22 Oct 2014 (Local Time) from OIKQ Reporting Station
Clear Clear  
Wind Chill: 90°   Ceiling: Unl
Heat Index: 100°   Visibility: 5mi
Dew Point: 75°   Wind: 16mph
Humidity: 62%   Direction: 220°SW
Pressure: 29.88"   Gusts: NA
Location:  26.22°N, 56.23°E
Report Text: OIKQ 221000Z 22014KT 8000 32/24 Q1012
Loading
Personal Weather Stations






























Interactive Weather Map
Tropical Storm Tracking
New forecast layout! Learn more

10-Day Weather Forecast

Advertisements
Track Severe Weather on mobile